createdAt,value
2022-08-01T00:00:09.941Z,4.53
2022-08-01T00:02:57.276Z,3.43
2022-08-01T00:05:24.508Z,8.63
2022-08-01T00:07:51.483Z,9.00
2022-08-01T00:10:19.012Z,4.90
2022-08-01T00:12:46.470Z,4.13
2022-08-01T00:15:17.347Z,6.93
2022-08-01T00:17:45.255Z,9.70
2022-08-01T00:20:15.093Z,6.03
2022-08-01T00:22:42.333Z,5.97
2022-08-01T00:25:09.535Z,7.37
2022-08-01T00:27:37.547Z,6.40
2022-08-01T00:30:13.323Z,7.20
2022-08-01T00:32:44.566Z,7.17
2022-08-01T00:35:12.169Z,4.30
2022-08-01T00:37:39.023Z,4.67
2022-08-01T00:40:07.653Z,4.17
2022-08-01T00:42:34.558Z,6.13
2022-08-01T00:45:01.590Z,7.63
2022-08-01T00:47:28.653Z,5.13
2022-08-01T00:49:55.708Z,5.77
2022-08-01T00:52:22.712Z,5.40
2022-08-01T00:54:50.032Z,6.17
2022-08-01T00:57:18.707Z,6.87
2022-08-01T01:00:05.760Z,7.87
2022-08-01T01:02:33.150Z,5.63
2022-08-01T01:05:00.150Z,9.10
2022-08-01T01:07:49.605Z,12.43
2022-08-01T01:10:41.548Z,6.07
2022-08-01T01:13:19.192Z,3.57
2022-08-01T01:16:14.654Z,4.77
2022-08-01T01:18:52.728Z,6.07
2022-08-01T01:21:22.583Z,10.53
2022-08-01T01:24:04.173Z,6.57
2022-08-01T01:27:05.647Z,6.83
2022-08-01T01:30:00.272Z,8.40
2022-08-01T01:32:35.119Z,6.30
2022-08-01T01:35:08.833Z,3.33
2022-08-01T01:37:40.210Z,6.37
2022-08-01T01:40:10.671Z,7.97
2022-08-01T01:42:39.968Z,4.10
2022-08-01T01:45:08.521Z,4.30
2022-08-01T01:47:39.545Z,6.17
2022-08-01T01:50:09.624Z,4.13
2022-08-01T01:52:39.034Z,4.73
2022-08-01T01:55:08.336Z,3.23
2022-08-01T01:57:40.243Z,4.47
2022-08-01T02:00:09.614Z,3.83
2022-08-01T02:02:38.471Z,10.97
2022-08-01T02:05:08.413Z,6.10
2022-08-01T02:07:36.746Z,5.63
2022-08-01T02:10:06.352Z,3.50
2022-08-01T02:12:37.405Z,7.33
2022-08-01T02:15:06.670Z,4.37
2022-08-01T02:17:38.790Z,8.63
2022-08-01T02:20:06.547Z,6.13
2022-08-01T02:22:38.387Z,7.53
2022-08-01T02:25:32.636Z,4.80
2022-08-01T02:28:09.168Z,5.23
2022-08-01T02:30:39.817Z,5.27
2022-08-01T02:33:15.698Z,6.03
2022-08-01T02:36:31.667Z,5.37
2022-08-01T02:38:41.641Z,11.50
2022-08-01T02:41:12.234Z,6.87
2022-08-01T02:43:44.307Z,4.90
2022-08-01T02:46:29.764Z,6.20
2022-08-01T02:49:00.685Z,4.17
2022-08-01T02:51:28.920Z,8.03
2022-08-01T02:53:58.137Z,3.87
2022-08-01T02:56:35.726Z,4.73
2022-08-01T02:59:07.060Z,3.40
2022-08-01T03:01:39.019Z,4.97
2022-08-01T03:04:09.984Z,5.77
2022-08-01T03:06:39.475Z,7.13
2022-08-01T03:09:08.861Z,6.40
2022-08-01T03:11:38.925Z,5.10
2022-08-01T03:14:10.050Z,8.57
2022-08-01T03:16:39.540Z,7.33
2022-08-01T03:19:09.644Z,7.20
2022-08-01T03:21:39.335Z,4.67
2022-08-01T03:24:08.730Z,3.73
2022-08-01T03:26:39.300Z,4.23
2022-08-01T03:29:10.923Z,5.20
2022-08-01T03:31:40.718Z,5.80
2022-08-01T03:34:07.935Z,4.67
2022-08-01T03:36:42.496Z,5.50
2022-08-01T03:39:12.276Z,5.17
2022-08-01T03:41:44.579Z,4.43
2022-08-01T03:44:16.517Z,5.27
2022-08-01T03:46:47.559Z,5.37
2022-08-01T03:49:37.967Z,4.90
2022-08-01T03:52:08.668Z,5.53
2022-08-01T03:54:41.223Z,4.37
2022-08-01T03:57:35.162Z,4.60
2022-08-01T03:59:59.474Z,5.23
2022-08-01T04:02:28.343Z,4.67
2022-08-01T04:04:56.367Z,4.70
2022-08-01T04:07:30.565Z,7.30
2022-08-01T04:09:57.873Z,11.57
2022-08-01T04:12:25.534Z,8.90
2022-08-01T04:14:52.619Z,8.87
2022-08-01T04:17:19.868Z,10.10
2022-08-01T04:19:47.261Z,6.20
2022-08-01T04:22:17.575Z,9.13
2022-08-01T04:24:56.324Z,6.53
2022-08-01T04:27:50.553Z,10.23
2022-08-01T04:30:23.140Z,8.20
2022-08-01T04:32:53.578Z,8.03
2022-08-01T04:35:34.870Z,12.27
2022-08-01T04:38:10.849Z,5.90
2022-08-01T04:40:39.181Z,6.20
2022-08-01T04:43:06.918Z,6.67
2022-08-01T04:45:35.252Z,5.70
2022-08-01T04:48:02.919Z,9.02
2022-08-01T04:50:30.138Z,6.07
2022-08-01T04:52:58.311Z,8.25
2022-08-01T04:55:25.420Z,12.82
2022-08-01T04:57:52.334Z,8.85
2022-08-01T05:00:19.508Z,6.35
2022-08-01T05:02:47.629Z,10.15
2022-08-01T05:05:15.895Z,12.77
2022-08-01T05:07:45.308Z,10.95
2022-08-01T05:10:13.139Z,8.27
2022-08-01T05:12:40.885Z,10.25
2022-08-01T05:15:13.183Z,7.90
2022-08-01T05:17:45.336Z,6.85
2022-08-01T05:20:13.226Z,7.60
2022-08-01T05:22:40.357Z,8.30
2022-08-01T05:25:07.794Z,10.13
2022-08-01T05:27:40.324Z,7.50
2022-08-01T05:30:11.010Z,8.98
2022-08-01T05:32:39.125Z,4.78
2022-08-01T05:35:07.141Z,6.63
2022-08-01T05:37:34.432Z,10.88
2022-08-01T05:40:01.853Z,6.05
2022-08-01T05:42:28.779Z,12.75
2022-08-01T05:44:55.704Z,6.65
2022-08-01T05:47:23.025Z,5.70
2022-08-01T05:49:49.933Z,9.52
2022-08-01T05:52:16.987Z,7.63
2022-08-01T05:54:44.250Z,6.60
2022-08-01T05:57:11.293Z,10.65
2022-08-01T05:59:39.422Z,10.15
2022-08-01T06:02:06.824Z,7.68
2022-08-01T06:04:33.892Z,7.30
2022-08-01T06:07:00.879Z,8.80
2022-08-01T06:09:28.266Z,7.10
2022-08-01T06:11:55.260Z,9.38
2022-08-01T06:14:22.176Z,7.82
2022-08-01T06:16:49.358Z,8.27
2022-08-01T06:19:16.315Z,10.15
2022-08-01T06:21:43.384Z,7.07
2022-08-01T06:24:10.487Z,10.05
2022-08-01T06:26:38.217Z,12.60
2022-08-01T06:29:05.282Z,7.68
2022-08-01T06:31:33.891Z,7.45
2022-08-01T06:34:01.175Z,7.90
2022-08-01T06:36:28.215Z,8.93
2022-08-01T06:38:55.369Z,6.70
2022-08-01T06:41:22.334Z,7.90
2022-08-01T06:43:49.407Z,5.43
2022-08-01T06:46:16.663Z,6.13
2022-08-01T06:48:43.759Z,6.63
2022-08-01T06:51:12.436Z,12.57
2022-08-01T06:53:39.713Z,7.15
2022-08-01T06:56:07.995Z,6.55
2022-08-01T06:58:35.864Z,7.45
2022-08-01T07:01:07.162Z,10.32
2022-08-01T07:03:53.209Z,9.05
2022-08-01T07:06:26.098Z,10.18
2022-08-01T07:08:54.047Z,13.43
2022-08-01T07:11:22.640Z,9.80
2022-08-01T07:13:49.983Z,10.52
2022-08-01T07:16:17.909Z,6.90
2022-08-01T07:18:44.931Z,7.25
2022-08-01T07:21:16.435Z,6.70
2022-08-01T07:23:59.249Z,8.77
2022-08-01T07:26:28.364Z,9.60
2022-08-01T07:28:55.559Z,8.50
2022-08-01T07:31:22.492Z,10.13
2022-08-01T07:33:50.316Z,5.70
2022-08-01T07:36:18.466Z,8.75
2022-08-01T07:38:46.023Z,8.73
2022-08-01T07:41:13.530Z,9.43
2022-08-01T07:43:40.694Z,7.80
2022-08-01T07:46:07.896Z,9.77
2022-08-01T07:48:35.164Z,8.45
2022-08-01T07:51:02.365Z,5.55
2022-08-01T07:53:30.181Z,10.60
2022-08-01T07:55:57.240Z,10.05
2022-08-01T07:58:24.288Z,7.20
2022-08-01T08:00:51.166Z,8.93
2022-08-01T08:03:18.356Z,7.82
2022-08-01T08:05:59.710Z,10.63
2022-08-01T08:08:28.493Z,8.38
2022-08-01T08:10:55.501Z,6.10
2022-08-01T08:13:23.078Z,9.43
2022-08-01T08:15:50.202Z,8.13
2022-08-01T08:18:17.218Z,8.88
2022-08-01T08:20:44.721Z,7.45
2022-08-01T08:23:42.122Z,14.60
2022-08-01T08:26:11.009Z,7.97
2022-08-01T08:28:38.434Z,11.45
2022-08-01T08:31:24.598Z,8.07
2022-08-01T08:33:53.196Z,8.45
2022-08-01T08:36:20.158Z,12.23
2022-08-01T08:38:47.294Z,9.23
2022-08-01T08:41:19.355Z,7.15
2022-08-01T08:43:48.650Z,6.55
2022-08-01T08:46:15.926Z,7.22
2022-08-01T08:48:43.233Z,7.38
2022-08-01T08:51:12.479Z,5.40
2022-08-01T08:53:44.452Z,7.35
2022-08-01T08:56:14.164Z,9.10
2022-08-01T08:58:46.196Z,3.67
2022-08-01T09:01:14.251Z,7.68
2022-08-01T09:03:41.910Z,6.43
2022-08-01T09:06:09.273Z,7.65
2022-08-01T09:08:36.431Z,8.52
2022-08-01T09:11:04.407Z,7.97
2022-08-01T09:13:31.698Z,9.23
2022-08-01T09:16:00.029Z,9.35
2022-08-01T09:18:33.183Z,6.88
2022-08-01T09:21:20.405Z,6.47
2022-08-01T09:23:54.259Z,8.73
2022-08-01T09:26:31.666Z,4.22
2022-08-01T09:29:00.521Z,12.30
2022-08-01T09:31:38.157Z,5.85
2022-08-01T09:34:05.953Z,5.03
2022-08-01T09:37:12.344Z,5.43
2022-08-01T09:39:44.136Z,6.28
2022-08-01T09:42:28.874Z,5.57
2022-08-01T09:44:56.732Z,3.88
2022-08-01T09:47:38.848Z,5.13
2022-08-01T09:50:10.732Z,4.72
2022-08-01T09:52:39.044Z,3.45
2022-08-01T09:55:08.983Z,5.28
2022-08-01T09:57:35.924Z,4.68
2022-08-01T10:00:04.867Z,8.80
2022-08-01T10:02:44.272Z,4.80
2022-08-01T10:05:18.819Z,6.10
2022-08-01T10:08:07.984Z,4.32
2022-08-01T10:10:37.260Z,4.93
2022-08-01T10:13:05.356Z,9.25
2022-08-01T10:15:37.196Z,6.68
2022-08-01T10:18:26.196Z,6.70
2022-08-01T10:20:56.331Z,6.03
2022-08-01T10:23:39.862Z,7.80
2022-08-01T10:26:09.388Z,7.60
2022-08-01T10:28:38.636Z,4.72
2022-08-01T10:31:12.354Z,5.28
2022-08-01T10:33:52.711Z,5.82
2022-08-01T10:36:22.675Z,4.28
2022-08-01T10:38:51.025Z,6.93
2022-08-01T10:41:19.851Z,4.50
2022-08-01T10:43:47.158Z,4.70
2022-08-01T10:46:15.053Z,5.78
2022-08-01T10:48:52.425Z,4.72
2022-08-01T10:51:21.607Z,4.45
2022-08-01T10:53:54.231Z,5.97
2022-08-01T10:56:27.188Z,4.18
2022-08-01T10:59:06.072Z,7.57
2022-08-01T11:01:38.953Z,4.32
2022-08-01T11:04:17.624Z,5.85
2022-08-01T11:07:05.020Z,5.50
2022-08-01T11:09:40.868Z,5.80
2022-08-01T11:12:18.900Z,4.45
2022-08-01T11:15:00.066Z,5.78
2022-08-01T11:17:54.867Z,3.75
2022-08-01T11:20:31.029Z,3.28
2022-08-01T11:23:02.455Z,5.57
2022-08-01T11:26:05.193Z,2.22
2022-08-01T11:28:34.810Z,4.75
2022-08-01T11:31:11.365Z,7.22
2022-08-01T11:33:41.339Z,5.43
2022-08-01T11:36:11.263Z,4.50
2022-08-01T11:38:39.946Z,5.78
2022-08-01T11:41:14.426Z,3.25
2022-08-01T11:44:00.125Z,5.30
2022-08-01T11:46:46.066Z,4.05
2022-08-01T11:49:38.669Z,7.65
2022-08-01T11:52:09.732Z,2.72
2022-08-01T11:54:42.831Z,4.60
2022-08-01T11:57:38.169Z,9.18
2022-08-01T12:00:16.838Z,4.75
2022-08-01T12:02:47.288Z,7.55
2022-08-01T12:05:19.154Z,2.90
2022-08-01T12:07:51.424Z,6.47
2022-08-01T12:10:23.993Z,5.65
2022-08-01T12:12:56.777Z,2.72
2022-08-01T12:15:25.444Z,4.90
2022-08-01T12:17:59.683Z,5.75
2022-08-01T12:20:35.181Z,3.88
2022-08-01T12:23:08.813Z,8.63
2022-08-01T12:25:37.128Z,3.65
2022-08-01T12:28:09.358Z,3.03
2022-08-01T12:30:38.202Z,4.72
2022-08-01T12:33:07.757Z,3.65
2022-08-01T12:35:35.909Z,5.00
2022-08-01T12:38:14.734Z,4.65
2022-08-01T12:40:45.793Z,5.50
2022-08-01T12:43:27.142Z,7.47
2022-08-01T12:45:59.414Z,2.78
2022-08-01T12:48:27.644Z,6.65
2022-08-01T12:50:58.595Z,3.88
2022-08-01T12:53:40.843Z,4.57
2022-08-01T12:56:11.422Z,4.10
2022-08-01T12:58:39.655Z,6.85
2022-08-01T13:01:11.700Z,4.68
2022-08-01T13:03:39.766Z,6.57
2022-08-01T13:06:16.146Z,5.80
2022-08-01T13:08:44.014Z,2.28
2022-08-01T13:11:17.627Z,6.03
2022-08-01T13:13:52.219Z,6.78
2022-08-01T13:16:30.421Z,3.58
2022-08-01T13:19:06.821Z,3.63
2022-08-01T13:21:53.555Z,5.57
2022-08-01T13:24:29.515Z,6.55
2022-08-01T13:27:01.298Z,2.85
2022-08-01T13:29:39.503Z,5.40
2022-08-01T13:32:27.732Z,3.80
2022-08-01T13:35:09.353Z,4.60
2022-08-01T13:37:41.669Z,5.47
2022-08-01T13:40:10.302Z,3.75
2022-08-01T13:42:38.453Z,6.07
2022-08-01T13:45:14.488Z,8.98
2022-08-01T13:48:04.148Z,5.63
2022-08-01T13:50:30.577Z,3.20
2022-08-01T13:52:58.179Z,4.47
2022-08-01T13:55:25.251Z,6.60
2022-08-01T13:57:52.168Z,4.18
2022-08-01T14:00:19.392Z,3.88
2022-08-01T14:02:46.317Z,4.82
2022-08-01T14:05:13.699Z,6.07
2022-08-01T14:07:41.416Z,4.22
2022-08-01T14:10:18.431Z,10.60
2022-08-01T14:12:50.617Z,2.90
2022-08-01T14:15:37.693Z,5.85
2022-08-01T14:18:06.192Z,4.30
2022-08-01T14:20:34.458Z,2.90
2022-08-01T14:23:01.752Z,5.18
2022-08-01T14:26:03.694Z,5.45
2022-08-01T14:28:16.008Z,9.07
2022-08-01T14:30:43.785Z,3.63
2022-08-01T14:33:12.474Z,21.17
2022-08-01T14:36:01.753Z,6.82
2022-08-01T14:38:31.749Z,6.50
2022-08-01T14:41:00.745Z,4.18
2022-08-01T14:43:32.803Z,3.22
2022-08-01T14:46:01.805Z,3.38
2022-08-01T14:48:29.921Z,8.90
2022-08-01T14:50:58.445Z,4.03
2022-08-01T14:53:25.906Z,8.30
2022-08-01T14:55:52.875Z,8.50
2022-08-01T14:58:19.913Z,4.22
2022-08-01T15:00:47.476Z,4.80
2022-08-01T15:03:14.555Z,4.00
2022-08-01T15:05:41.583Z,6.50
2022-08-01T15:08:08.725Z,5.28
2022-08-01T15:10:35.884Z,7.15
2022-08-01T15:13:02.994Z,6.85
2022-08-01T15:15:30.802Z,7.20
2022-08-01T15:17:58.155Z,4.03
2022-08-01T15:20:26.295Z,4.45
2022-08-01T15:22:54.184Z,2.58
2022-08-01T15:25:21.725Z,4.68
2022-08-01T15:27:49.018Z,4.63
2022-08-01T15:30:17.443Z,2.55
2022-08-01T15:32:51.215Z,7.13
2022-08-01T15:35:18.708Z,3.45
2022-08-01T15:37:45.687Z,5.10
2022-08-01T15:40:12.999Z,2.30
2022-08-01T15:42:40.307Z,4.18
2022-08-01T15:45:10.602Z,4.28
2022-08-01T15:47:40.297Z,5.05
2022-08-01T15:50:08.087Z,5.35
2022-08-01T15:52:35.379Z,7.35
2022-08-01T15:55:02.752Z,2.53
2022-08-01T15:57:29.925Z,5.20
2022-08-01T15:59:57.936Z,11.70
2022-08-01T16:02:24.908Z,4.65
2022-08-01T16:04:52.136Z,3.42
2022-08-01T16:07:19.202Z,3.55
2022-08-01T16:09:46.332Z,7.22
2022-08-01T16:12:13.704Z,7.00
2022-08-01T16:14:40.668Z,5.38
2022-08-01T16:17:07.646Z,8.40
2022-08-01T16:19:34.840Z,3.58
2022-08-01T16:22:01.854Z,3.03
2022-08-01T16:24:31.065Z,6.80
2022-08-01T16:26:58.519Z,6.50
2022-08-01T16:29:30.668Z,8.00
2022-08-01T16:32:11.103Z,5.30
2022-08-01T16:34:46.824Z,6.53
2022-08-01T16:37:15.169Z,4.30
2022-08-01T16:39:42.642Z,4.50
2022-08-01T16:42:10.198Z,7.43
2022-08-01T16:44:38.009Z,3.83
2022-08-01T16:47:05.993Z,4.50
2022-08-01T16:49:33.696Z,8.48
2022-08-01T16:52:00.753Z,6.75
2022-08-01T16:54:28.102Z,5.22
2022-08-01T16:56:57.967Z,5.72
2022-08-01T16:59:34.633Z,8.05
2022-08-01T17:02:10.676Z,2.58
2022-08-01T17:04:37.810Z,4.00
2022-08-01T17:07:05.133Z,6.32
2022-08-01T17:09:32.894Z,5.15
2022-08-01T17:11:59.882Z,6.78
2022-08-01T17:14:28.571Z,5.15
2022-08-01T17:16:55.890Z,8.10
2022-08-01T17:19:32.771Z,5.15
2022-08-01T17:22:00.822Z,6.30
2022-08-01T17:24:27.811Z,6.78
2022-08-01T17:26:55.023Z,6.10
2022-08-01T17:29:22.241Z,9.05
2022-08-01T17:31:49.379Z,7.53
2022-08-01T17:34:16.736Z,7.88
2022-08-01T17:36:43.911Z,9.05
2022-08-01T17:39:13.435Z,5.07
2022-08-01T17:41:41.112Z,5.18
2022-08-01T17:44:08.653Z,4.18
2022-08-01T17:46:35.788Z,7.82
2022-08-01T17:49:04.083Z,10.77
2022-08-01T17:51:31.671Z,11.40
2022-08-01T17:53:58.972Z,6.22
2022-08-01T17:56:27.594Z,8.75
2022-08-01T17:58:55.480Z,7.75
2022-08-01T18:01:26.466Z,6.85
2022-08-01T18:03:55.823Z,6.63
2022-08-01T18:06:25.842Z,8.93
2022-08-01T18:08:55.549Z,10.10
2022-08-01T18:11:27.162Z,47.28
2022-08-01T18:13:56.632Z,29.00
2022-08-01T18:16:24.962Z,14.95
2022-08-01T18:18:51.917Z,36.90
2022-08-01T18:21:19.126Z,49.35
2022-08-01T18:23:51.775Z,48.58
2022-08-01T18:26:20.853Z,48.22
2022-08-01T18:28:48.181Z,34.08
2022-08-01T18:31:17.738Z,38.13
2022-08-01T18:33:45.415Z,35.72
2022-08-01T18:36:25.515Z,28.65
2022-08-01T18:39:04.238Z,31.25
2022-08-01T18:41:33.341Z,24.55
2022-08-01T18:44:05.449Z,19.88
2022-08-01T18:46:39.899Z,24.80
2022-08-01T18:49:09.240Z,20.27
2022-08-01T18:51:40.402Z,18.30
2022-08-01T18:54:10.182Z,14.70
2022-08-01T18:56:37.281Z,11.55
2022-08-01T18:59:04.250Z,10.38
2022-08-01T19:01:31.320Z,13.20
2022-08-01T19:03:58.614Z,15.73
2022-08-01T19:06:27.164Z,11.50
2022-08-01T19:08:58.305Z,12.80
2022-08-01T19:11:29.365Z,16.13
2022-08-01T19:13:56.625Z,15.70
2022-08-01T19:16:23.676Z,12.45
2022-08-01T19:18:50.858Z,12.88
2022-08-01T19:21:18.857Z,12.68
2022-08-01T19:24:04.607Z,11.80
2022-08-01T19:26:34.977Z,16.08
2022-08-01T19:29:10.261Z,11.43
2022-08-01T19:31:44.391Z,12.80
2022-08-01T19:34:17.109Z,14.52
2022-08-01T19:36:47.475Z,12.98
2022-08-01T19:39:23.460Z,12.00
2022-08-01T19:41:51.758Z,11.73
2022-08-01T19:44:22.685Z,10.85
2022-08-01T19:46:51.436Z,9.68
2022-08-01T19:49:20.680Z,15.95
2022-08-01T19:52:03.710Z,10.35
2022-08-01T19:54:35.244Z,10.75
2022-08-01T19:57:04.326Z,18.85
2022-08-01T19:59:35.073Z,12.63
2022-08-01T20:02:02.761Z,13.20
2022-08-01T20:04:30.200Z,16.38
2022-08-01T20:06:57.362Z,13.85
2022-08-01T20:09:24.405Z,9.82
2022-08-01T20:11:53.051Z,10.48
2022-08-01T20:14:23.372Z,13.05
2022-08-01T20:16:52.775Z,12.10
2022-08-01T20:19:21.977Z,8.13
2022-08-01T20:22:03.988Z,11.25
2022-08-01T20:24:39.625Z,12.82
2022-08-01T20:27:10.771Z,10.77
2022-08-01T20:29:38.851Z,9.95
2022-08-01T20:32:06.896Z,9.27
2022-08-01T20:34:38.045Z,11.23
2022-08-01T20:37:13.114Z,10.23
2022-08-01T20:39:44.161Z,18.42
2022-08-01T20:42:13.562Z,11.65
2022-08-01T20:44:40.634Z,11.75
2022-08-01T20:47:08.158Z,9.98
2022-08-01T20:49:37.043Z,10.27
2022-08-01T20:52:11.638Z,10.32
2022-08-01T20:54:43.562Z,10.75
2022-08-01T20:57:26.141Z,8.93
2022-08-01T21:00:06.106Z,11.82
2022-08-01T21:02:33.026Z,11.40
2022-08-01T21:05:12.514Z,13.32
2022-08-01T21:07:47.417Z,10.95
2022-08-01T21:10:17.154Z,15.75
2022-08-01T21:12:47.206Z,12.45
2022-08-01T21:15:30.855Z,15.75
2022-08-01T21:18:02.751Z,15.55
2022-08-01T21:20:32.472Z,13.13
2022-08-01T21:22:59.557Z,16.63
2022-08-01T21:25:32.980Z,15.77
2022-08-01T21:28:04.509Z,13.02
2022-08-01T21:30:34.990Z,15.85
2022-08-01T21:33:05.035Z,13.93
2022-08-01T21:35:32.870Z,15.70
2022-08-01T21:38:02.442Z,17.92
2022-08-01T21:40:32.681Z,15.73
2022-08-01T21:43:02.088Z,14.02
2022-08-01T21:45:30.142Z,13.40
2022-08-01T21:47:59.624Z,14.80
2022-08-01T21:50:26.753Z,18.40
2022-08-01T21:53:08.629Z,17.70
2022-08-01T21:56:01.805Z,13.10
2022-08-01T21:58:51.575Z,22.45
2022-08-01T22:01:53.146Z,16.70
2022-08-01T22:04:46.235Z,17.05
2022-08-01T22:07:16.383Z,17.55
2022-08-01T22:09:49.340Z,15.35
2022-08-01T22:12:18.827Z,16.27
2022-08-01T22:14:49.244Z,15.82
2022-08-01T22:17:24.718Z,14.45
2022-08-01T22:19:56.324Z,15.82
2022-08-01T22:22:51.101Z,13.02
2022-08-01T22:25:12.374Z,14.07
2022-08-01T22:28:03.070Z,13.63
2022-08-01T22:30:29.437Z,13.48
2022-08-01T22:33:07.212Z,16.80
2022-08-01T22:35:45.200Z,13.18
2022-08-01T22:38:12.307Z,10.23
2022-08-01T22:40:45.568Z,16.42
2022-08-01T22:43:25.409Z,17.23
2022-08-01T22:46:14.658Z,13.55
2022-08-01T22:48:45.784Z,12.85
2022-08-01T22:51:43.860Z,10.82
2022-08-01T22:54:28.780Z,14.05
2022-08-01T22:56:57.219Z,8.65
2022-08-01T22:59:42.395Z,11.68
2022-08-01T23:02:16.300Z,8.77
2022-08-01T23:04:47.047Z,7.28
2022-08-01T23:07:20.088Z,9.43
2022-08-01T23:09:54.234Z,12.25
2022-08-01T23:12:25.566Z,8.82
2022-08-01T23:14:55.924Z,9.52
2022-08-01T23:17:26.879Z,9.88
2022-08-01T23:20:05.877Z,10.27
2022-08-01T23:22:37.163Z,8.48
2022-08-01T23:25:08.095Z,9.15
2022-08-01T23:28:04.410Z,14.55
2022-08-01T23:30:27.391Z,14.55
2022-08-01T23:32:55.027Z,6.05
2022-08-01T23:35:22.103Z,6.88
2022-08-01T23:37:51.243Z,7.47
2022-08-01T23:40:19.328Z,8.27
2022-08-01T23:42:46.445Z,15.73
2022-08-01T23:45:14.096Z,6.78
2022-08-01T23:47:41.160Z,7.55
2022-08-01T23:50:08.680Z,8.10
2022-08-01T23:52:42.603Z,6.55
2022-08-01T23:55:15.924Z,9.93
2022-08-01T23:57:43.401Z,6.32
